createdAt,value
2023-05-09T00:00:54.622Z,70.15
2023-05-09T00:01:54.675Z,70.36
2023-05-09T00:02:54.655Z,70.46
2023-05-09T00:03:54.577Z,71.21
2023-05-09T00:04:54.590Z,70.67
2023-05-09T00:05:54.554Z,69.40
2023-05-09T00:06:54.588Z,69.61
2023-05-09T00:07:54.523Z,69.95
2023-05-09T00:08:54.508Z,70.15
2023-05-09T00:09:54.513Z,69.64
2023-05-09T00:10:54.559Z,69.51
2023-05-09T00:11:54.489Z,69.84
2023-05-09T00:12:54.506Z,69.64
2023-05-09T00:13:54.459Z,69.64
2023-05-09T00:14:54.458Z,69.33
2023-05-09T00:15:54.495Z,69.33
2023-05-09T00:16:54.510Z,69.64
2023-05-09T00:17:54.466Z,69.74
2023-05-09T00:18:54.422Z,69.64
2023-05-09T00:19:54.388Z,69.78
2023-05-09T00:20:54.435Z,70.39
2023-05-09T00:21:54.367Z,70.29
2023-05-09T00:22:54.373Z,70.39
2023-05-09T00:23:54.355Z,70.80
2023-05-09T00:24:54.420Z,70.42
2023-05-09T00:25:54.371Z,70.18
2023-05-09T00:26:54.313Z,70.39
2023-05-09T00:27:54.297Z,70.84
2023-05-09T00:28:54.332Z,70.18
2023-05-09T00:29:54.325Z,69.37
2023-05-09T00:30:54.284Z,69.67
2023-05-09T00:31:54.304Z,70.08
2023-05-09T00:32:54.280Z,69.98
2023-05-09T00:33:54.235Z,70.22
2023-05-09T00:34:54.282Z,70.53
2023-05-09T00:35:54.212Z,70.22
2023-05-09T00:36:54.215Z,70.53
2023-05-09T00:37:54.184Z,70.73
2023-05-09T00:38:54.266Z,70.63
2023-05-09T00:39:54.233Z,70.53
2023-05-09T00:40:54.168Z,70.73
2023-05-09T00:41:54.151Z,70.42
2023-05-09T00:42:54.146Z,70.22
2023-05-09T00:43:54.182Z,70.53
2023-05-09T00:44:54.148Z,70.73
2023-05-09T00:45:54.075Z,70.42
2023-05-09T00:46:54.047Z,70.63
2023-05-09T00:47:54.085Z,70.53
2023-05-09T00:48:54.060Z,71.08
2023-05-09T00:49:54.007Z,71.17
2023-05-09T00:50:54.030Z,71.08
2023-05-09T00:51:53.968Z,71.48
2023-05-09T00:52:53.977Z,71.72
2023-05-09T00:53:53.995Z,72.03
2023-05-09T00:54:53.959Z,71.72
2023-05-09T00:55:53.946Z,71.72
2023-05-09T00:56:53.923Z,71.38
2023-05-09T00:57:53.962Z,71.72
2023-05-09T00:58:53.932Z,72.13
2023-05-09T00:59:53.903Z,71.83
2023-05-09T01:00:53.874Z,71.28
2023-05-09T01:01:53.905Z,71.08
2023-05-09T01:02:54.047Z,71.38
2023-05-09T01:03:53.868Z,71.51
2023-05-09T01:04:53.836Z,71.48
2023-05-09T01:05:53.819Z,71.72
2023-05-09T01:06:53.814Z,71.41
2023-05-09T01:07:53.844Z,71.83
2023-05-09T01:08:53.782Z,71.83
2023-05-09T01:09:53.771Z,72.44
2023-05-09T01:10:53.783Z,71.93
2023-05-09T01:11:53.774Z,72.13
2023-05-09T01:12:53.804Z,72.03
2023-05-09T01:13:53.730Z,72.13
2023-05-09T01:14:53.726Z,71.93
2023-05-09T01:15:53.767Z,71.51
2023-05-09T01:16:53.719Z,71.83
2023-05-09T01:17:53.744Z,72.34
2023-05-09T01:18:53.679Z,71.83
2023-05-09T01:19:53.665Z,71.83
2023-05-09T01:20:53.643Z,72.13
2023-05-09T01:21:53.680Z,72.38
2023-05-09T01:22:53.629Z,72.58
2023-05-09T01:23:53.601Z,72.78
2023-05-09T01:24:53.600Z,72.58
2023-05-09T01:25:53.630Z,72.47
2023-05-09T01:26:53.617Z,72.58
2023-05-09T01:27:53.592Z,72.58
2023-05-09T01:28:53.574Z,73.19
2023-05-09T01:29:53.535Z,73.64
2023-05-09T01:30:53.580Z,73.85
2023-05-09T01:31:53.530Z,73.54
2023-05-09T01:32:53.549Z,73.19
2023-05-09T01:33:53.493Z,73.13
2023-05-09T01:34:53.521Z,73.54
2023-05-09T01:35:53.516Z,73.54
2023-05-09T01:36:53.462Z,73.85
2023-05-09T01:37:53.471Z,73.95
2023-05-09T01:38:53.447Z,73.95
2023-05-09T01:39:53.474Z,74.19
2023-05-09T01:40:53.433Z,73.85
2023-05-09T01:41:53.429Z,73.95
2023-05-09T01:42:53.395Z,74.40
2023-05-09T01:43:53.419Z,73.33
2023-05-09T01:44:53.419Z,73.95
2023-05-09T01:45:53.356Z,73.85
2023-05-09T01:46:53.464Z,74.15
2023-05-09T01:47:53.374Z,74.19
2023-05-09T01:48:53.322Z,74.29
2023-05-09T01:49:53.355Z,74.91
2023-05-09T01:50:53.320Z,74.91
2023-05-09T01:51:53.318Z,74.70
2023-05-09T01:52:53.322Z,74.60
2023-05-09T01:53:53.322Z,75.46
2023-05-09T01:54:53.318Z,75.35
2023-05-09T01:55:53.250Z,75.25
2023-05-09T01:56:53.259Z,75.46
2023-05-09T01:57:53.241Z,75.67
2023-05-09T01:58:53.268Z,75.77
2023-05-09T01:59:53.210Z,75.56
2023-05-09T02:00:53.226Z,76.07
2023-05-09T02:01:53.201Z,76.42
2023-05-09T02:02:53.425Z,76.93
2023-05-09T02:03:53.200Z,77.18
2023-05-09T02:04:53.148Z,77.28
2023-05-09T02:05:53.179Z,77.38
2023-05-09T02:06:53.129Z,78.00
2023-05-09T02:07:53.149Z,77.90
2023-05-09T02:08:53.160Z,77.90
2023-05-09T02:09:53.105Z,78.34
2023-05-09T02:10:53.085Z,78.21
2023-05-09T02:11:53.079Z,78.24
2023-05-09T02:12:53.154Z,78.11
2023-05-09T02:13:53.047Z,78.55
2023-05-09T02:14:53.028Z,79.07
2023-05-09T02:15:53.044Z,79.62
2023-05-09T02:16:53.036Z,79.72
2023-05-09T02:17:53.089Z,79.93
2023-05-09T02:18:53.014Z,79.83
2023-05-09T02:19:52.984Z,80.34
2023-05-09T02:20:53.000Z,80.34
2023-05-09T02:21:52.964Z,80.38
2023-05-09T02:22:52.983Z,80.69
2023-05-09T02:23:52.943Z,81.00
2023-05-09T02:24:52.960Z,81.21
2023-05-09T02:25:52.898Z,81.21
2023-05-09T02:26:52.934Z,81.31
2023-05-09T02:27:52.930Z,81.51
2023-05-09T02:28:52.885Z,81.21
2023-05-09T02:29:52.871Z,81.10
2023-05-09T02:30:52.861Z,81.21
2023-05-09T02:31:52.916Z,81.31
2023-05-09T02:32:52.875Z,81.62
2023-05-09T02:33:52.822Z,81.41
2023-05-09T02:34:52.819Z,81.10
2023-05-09T02:35:52.840Z,81.31
2023-05-09T02:36:52.839Z,81.21
2023-05-09T02:37:52.770Z,80.34
2023-05-09T02:38:52.770Z,80.44
2023-05-09T02:39:52.769Z,80.48
2023-05-09T02:40:52.818Z,80.79
2023-05-09T02:41:52.744Z,80.90
2023-05-09T02:42:52.727Z,81.10
2023-05-09T02:43:52.711Z,81.51
2023-05-09T02:44:52.710Z,80.90
2023-05-09T02:45:52.817Z,80.90
2023-05-09T02:46:52.671Z,80.69
2023-05-09T02:47:52.717Z,80.90
2023-05-09T02:48:52.660Z,81.21
2023-05-09T02:49:52.676Z,81.31
2023-05-09T02:50:52.709Z,81.31
2023-05-09T02:51:52.625Z,81.41
2023-05-09T02:52:52.617Z,81.51
2023-05-09T02:53:52.607Z,81.10
2023-05-09T02:54:52.637Z,81.21
2023-05-09T02:55:52.565Z,81.56
2023-05-09T02:56:52.559Z,81.66
2023-05-09T02:58:01.898Z,81.96
2023-05-09T02:58:53.540Z,82.42
2023-05-09T02:59:52.566Z,82.93
2023-05-09T03:00:52.521Z,83.34
2023-05-09T03:01:52.581Z,83.45
2023-05-09T03:02:52.550Z,83.65
2023-05-09T03:03:52.540Z,83.55
2023-05-09T03:04:52.506Z,83.55
2023-05-09T03:05:52.464Z,83.55
2023-05-09T03:06:52.469Z,83.55
2023-05-09T03:07:52.433Z,83.14
2023-05-09T03:08:52.465Z,82.93
2023-05-09T03:09:52.462Z,82.69
2023-05-09T03:10:52.395Z,82.83
2023-05-09T03:11:52.425Z,82.73
2023-05-09T03:12:52.430Z,82.73
2023-05-09T03:13:52.410Z,82.83
2023-05-09T03:14:52.362Z,82.48
2023-05-09T03:15:52.400Z,82.17
2023-05-09T03:16:52.338Z,82.48
2023-05-09T03:17:52.372Z,82.83
2023-05-09T03:18:52.358Z,83.14
2023-05-09T03:19:52.325Z,83.25
2023-05-09T03:20:52.295Z,83.34
2023-05-09T03:21:52.284Z,83.34
2023-05-09T03:22:52.286Z,83.14
2023-05-09T03:23:52.292Z,83.45
2023-05-09T03:24:52.246Z,83.45
2023-05-09T03:25:52.248Z,83.14
2023-05-09T03:26:52.205Z,83.25
2023-05-09T03:27:52.370Z,83.04
2023-05-09T03:28:52.181Z,83.04
2023-05-09T03:29:52.191Z,83.14
2023-05-09T03:30:52.174Z,83.04
2023-05-09T03:31:52.194Z,83.25
2023-05-09T03:32:52.256Z,82.79
2023-05-09T03:33:52.167Z,82.69
2023-05-09T03:34:52.116Z,82.59
2023-05-09T03:35:52.132Z,82.48
2023-05-09T03:36:52.138Z,82.28
2023-05-09T03:37:52.146Z,82.28
2023-05-09T03:38:52.093Z,81.82
2023-05-09T03:39:52.088Z,81.21
2023-05-09T03:40:52.061Z,81.51
2023-05-09T03:41:52.092Z,81.31
2023-05-09T03:42:52.044Z,80.55
2023-05-09T03:43:52.031Z,80.24
2023-05-09T03:44:52.011Z,80.34
2023-05-09T03:45:52.011Z,80.14
2023-05-09T03:46:52.058Z,80.14
2023-05-09T03:47:52.000Z,80.04
2023-05-09T03:48:51.950Z,80.00
2023-05-09T03:49:51.952Z,80.14
2023-05-09T03:50:51.988Z,80.34
2023-05-09T03:51:51.960Z,80.65
2023-05-09T03:52:51.920Z,80.86
2023-05-09T03:53:51.925Z,81.17
2023-05-09T03:54:51.905Z,81.68
2023-05-09T03:55:51.931Z,81.82
2023-05-09T03:56:51.878Z,81.72
2023-05-09T03:57:51.876Z,82.03
2023-05-09T03:58:51.882Z,81.93
2023-05-09T03:59:51.841Z,81.82
2023-05-09T04:00:51.874Z,81.48
2023-05-09T04:01:51.859Z,81.48
2023-05-09T04:02:51.845Z,81.58
2023-05-09T04:03:51.862Z,81.82
2023-05-09T04:04:51.793Z,82.34
2023-05-09T04:05:51.811Z,81.99
2023-05-09T04:06:51.793Z,81.79
2023-05-09T04:07:51.750Z,81.68
2023-05-09T04:08:51.778Z,81.89
2023-05-09T04:09:51.769Z,81.48
2023-05-09T04:10:51.762Z,81.03
2023-05-09T04:11:51.723Z,81.03
2023-05-09T04:12:51.748Z,80.82
2023-05-09T04:13:51.700Z,80.51
2023-05-09T04:14:51.727Z,79.75
2023-05-09T04:15:51.682Z,78.30
2023-05-09T04:16:51.744Z,76.90
2023-05-09T04:17:51.682Z,75.01
2023-05-09T04:18:51.629Z,73.71
2023-05-09T04:19:51.687Z,73.10
2023-05-09T04:20:51.617Z,72.24
2023-05-09T04:21:51.617Z,72.24
2023-05-09T04:22:51.578Z,71.90
2023-05-09T04:23:51.632Z,71.86
2023-05-09T04:24:51.607Z,70.43
2023-05-09T04:25:51.680Z,70.32
2023-05-09T04:26:51.548Z,70.29
2023-05-09T04:27:51.527Z,70.22
2023-05-09T04:28:51.562Z,70.02
2023-05-09T04:29:51.501Z,70.60
2023-05-09T04:30:51.610Z,69.89
2023-05-09T04:31:51.618Z,69.13
2023-05-09T04:32:51.494Z,69.44
2023-05-09T04:33:51.505Z,69.27
2023-05-09T04:34:51.469Z,70.56
2023-05-09T04:35:51.451Z,71.39
2023-05-09T04:36:51.433Z,71.32
2023-05-09T04:37:51.432Z,69.37
2023-05-09T04:38:51.437Z,69.17
2023-05-09T04:39:51.405Z,70.43
2023-05-09T04:40:51.379Z,70.29
2023-05-09T04:41:51.390Z,69.71
2023-05-09T04:42:51.405Z,70.22
2023-05-09T04:43:51.387Z,69.44
2023-05-09T04:44:51.338Z,69.17
2023-05-09T04:45:51.377Z,69.57
2023-05-09T04:46:51.345Z,69.71
2023-05-09T04:47:51.414Z,70.46
2023-05-09T04:48:51.272Z,70.46
2023-05-09T04:49:51.301Z,70.19
2023-05-09T04:50:51.287Z,69.89
2023-05-09T04:51:51.274Z,69.81
2023-05-09T04:52:51.294Z,69.37
2023-05-09T04:53:51.377Z,69.81
2023-05-09T04:54:51.220Z,69.68
2023-05-09T04:55:51.207Z,68.96
2023-05-09T04:56:51.265Z,68.38
2023-05-09T04:57:51.231Z,68.62
2023-05-09T04:58:51.180Z,69.13
2023-05-09T04:59:51.173Z,68.93
2023-05-09T05:00:51.155Z,69.00
2023-05-09T05:01:51.248Z,68.08
2023-05-09T05:02:51.190Z,68.08
2023-05-09T05:03:51.137Z,67.87
2023-05-09T05:04:51.360Z,67.60
2023-05-09T05:05:51.218Z,68.32
2023-05-09T05:06:51.133Z,68.49
2023-05-09T05:07:51.091Z,67.90
2023-05-09T05:08:51.087Z,68.38
2023-05-09T05:09:51.074Z,67.46
2023-05-09T05:10:51.085Z,68.32
2023-05-09T05:12:00.790Z,68.87
2023-05-09T05:12:52.030Z,67.02
2023-05-09T05:13:51.045Z,67.60
2023-05-09T05:14:51.014Z,67.70
2023-05-09T05:15:51.051Z,68.32
2023-05-09T05:16:51.003Z,67.84
2023-05-09T05:17:51.058Z,67.19
2023-05-09T05:18:50.970Z,66.38
2023-05-09T05:19:51.015Z,66.78
2023-05-09T05:20:50.971Z,66.28
2023-05-09T05:21:50.935Z,64.86
2023-05-09T05:22:50.962Z,65.23
2023-05-09T05:23:50.929Z,64.99
2023-05-09T05:24:50.957Z,65.94
2023-05-09T05:25:50.907Z,66.48
2023-05-09T05:26:50.863Z,65.73
2023-05-09T05:27:50.893Z,66.48
2023-05-09T05:28:50.827Z,66.28
2023-05-09T05:29:50.865Z,67.30
2023-05-09T05:30:50.824Z,65.77
2023-05-09T05:31:50.929Z,65.47
2023-05-09T05:32:50.916Z,64.59
2023-05-09T05:33:50.804Z,64.93
2023-05-09T05:34:50.820Z,64.28
2023-05-09T05:35:50.773Z,63.38
2023-05-09T05:36:50.782Z,62.21
2023-05-09T05:37:50.767Z,63.20
2023-05-09T05:38:50.862Z,62.39
2023-05-09T05:39:50.978Z,62.23
2023-05-09T05:40:50.738Z,61.04
2023-05-09T05:41:50.720Z,62.18
2023-05-09T05:42:50.709Z,62.26
2023-05-09T05:43:52.822Z,61.57
2023-05-09T05:44:50.677Z,62.42
2023-05-09T05:45:50.696Z,62.01
2023-05-09T05:46:50.629Z,62.80
2023-05-09T05:47:50.660Z,62.62
2023-05-09T05:48:50.648Z,62.52
2023-05-09T05:49:50.615Z,62.42
2023-05-09T05:50:50.602Z,62.62
2023-05-09T05:51:50.596Z,62.39
2023-05-09T05:52:50.625Z,61.37
2023-05-09T05:53:50.606Z,61.52
2023-05-09T05:54:50.546Z,60.27
2023-05-09T05:55:50.612Z,61.00
2023-05-09T05:56:50.507Z,60.06
2023-05-09T05:57:50.560Z,59.35
2023-05-09T05:58:50.492Z,59.42
2023-05-09T05:59:50.504Z,60.16
2023-05-09T06:00:50.483Z,60.37
2023-05-09T06:01:50.525Z,59.80
2023-05-09T06:02:50.529Z,58.56
2023-05-09T06:03:50.550Z,58.17
2023-05-09T06:04:50.452Z,59.35
2023-05-09T06:05:50.427Z,59.19
2023-05-09T06:06:50.434Z,58.45
2023-05-09T06:07:50.426Z,58.71
2023-05-09T06:08:50.392Z,59.66
2023-05-09T06:09:50.373Z,58.99
2023-05-09T06:10:50.394Z,58.25
2023-05-09T06:11:50.388Z,57.74
2023-05-09T06:12:50.405Z,59.12
2023-05-09T06:13:50.339Z,58.81
2023-05-09T06:14:50.312Z,59.35
2023-05-09T06:15:50.324Z,58.74
2023-05-09T06:16:50.415Z,58.76
2023-05-09T06:17:50.380Z,60.12
2023-05-09T06:18:50.301Z,59.12
2023-05-09T06:19:50.273Z,58.48
2023-05-09T06:20:50.300Z,58.10
2023-05-09T06:21:50.300Z,57.77
2023-05-09T06:22:50.222Z,58.12
2023-05-09T06:24:04.331Z,56.65
2023-05-09T06:24:51.226Z,56.90
2023-05-09T06:25:50.218Z,56.80
2023-05-09T06:26:50.166Z,57.13
2023-05-09T06:27:50.194Z,57.34
2023-05-09T06:28:50.175Z,58.12
2023-05-09T06:29:50.194Z,57.12
2023-05-09T06:30:50.196Z,56.85
2023-05-09T06:31:50.159Z,55.73
2023-05-09T06:32:50.134Z,55.50
2023-05-09T06:33:50.139Z,55.27
2023-05-09T06:34:50.160Z,55.78
2023-05-09T06:35:50.124Z,56.31
2023-05-09T06:36:50.082Z,54.18
2023-05-09T06:37:50.097Z,54.41
2023-05-09T06:38:50.078Z,55.53
2023-05-09T06:39:50.097Z,54.82
2023-05-09T06:40:50.067Z,55.78
2023-05-09T06:41:50.024Z,54.82
2023-05-09T06:42:50.041Z,52.08
2023-05-09T06:43:50.130Z,53.83
2023-05-09T06:44:50.055Z,53.04
2023-05-09T06:45:50.033Z,54.00
2023-05-09T06:46:49.960Z,54.92
2023-05-09T06:47:49.963Z,55.37
2023-05-09T06:48:50.021Z,54.11
2023-05-09T06:49:49.983Z,53.70
2023-05-09T06:50:49.924Z,54.61
2023-05-09T06:51:49.902Z,53.37
2023-05-09T06:52:49.901Z,54.00
2023-05-09T06:53:49.909Z,52.86
2023-05-09T06:54:49.865Z,53.45
2023-05-09T06:55:49.847Z,51.90
2023-05-09T06:56:49.860Z,52.26
2023-05-09T06:57:49.850Z,52.59
2023-05-09T06:58:49.884Z,52.81
2023-05-09T06:59:49.819Z,53.45
2023-05-09T07:00:49.795Z,53.93
2023-05-09T07:01:49.924Z,52.89
2023-05-09T07:02:49.857Z,53.67
2023-05-09T07:03:49.829Z,52.26
2023-05-09T07:04:49.780Z,53.19
2023-05-09T07:05:49.750Z,51.09
2023-05-09T07:06:49.753Z,50.57
2023-05-09T07:07:49.774Z,51.68
2023-05-09T07:08:49.763Z,51.04
2023-05-09T07:09:52.991Z,52.39
2023-05-09T07:10:50.698Z,50.16
2023-05-09T07:11:49.693Z,49.86
2023-05-09T07:12:49.724Z,50.21
2023-05-09T07:13:49.680Z,51.53
2023-05-09T07:14:49.680Z,52.15
2023-05-09T07:15:49.679Z,52.01
2023-05-09T07:16:49.747Z,51.55
2023-05-09T07:17:49.684Z,49.68
2023-05-09T07:18:49.628Z,50.51
2023-05-09T07:19:49.581Z,50.64
2023-05-09T07:20:49.622Z,51.03
2023-05-09T07:21:49.558Z,49.08
2023-05-09T07:22:49.626Z,49.35
2023-05-09T07:23:49.538Z,51.17
2023-05-09T07:24:49.540Z,50.72
2023-05-09T07:25:49.533Z,50.09
2023-05-09T07:26:49.508Z,48.90
2023-05-09T07:27:49.528Z,50.44
2023-05-09T07:28:49.496Z,49.70
2023-05-09T07:29:49.474Z,50.44
2023-05-09T07:30:49.479Z,50.12
2023-05-09T07:31:49.534Z,47.64
2023-05-09T07:32:49.580Z,48.07
2023-05-09T07:33:49.442Z,47.47
2023-05-09T07:34:49.425Z,47.45
2023-05-09T07:35:49.418Z,49.80
2023-05-09T07:36:49.565Z,48.99
2023-05-09T07:37:49.424Z,50.61
2023-05-09T07:38:49.425Z,50.69
2023-05-09T07:39:49.348Z,49.05
2023-05-09T07:40:49.384Z,48.95
2023-05-09T07:41:49.400Z,49.71
2023-05-09T07:42:49.326Z,48.70
2023-05-09T07:43:49.313Z,50.34
2023-05-09T07:44:49.324Z,48.80
2023-05-09T07:45:49.357Z,48.22
2023-05-09T07:46:49.356Z,47.52
2023-05-09T07:47:49.291Z,48.00
2023-05-09T07:48:49.303Z,47.44
2023-05-09T07:49:49.235Z,47.90
2023-05-09T07:50:49.285Z,46.62
2023-05-09T07:51:49.262Z,46.85
2023-05-09T07:52:49.216Z,46.65
2023-05-09T07:53:49.198Z,46.64
2023-05-09T07:54:49.217Z,47.08
2023-05-09T07:55:49.244Z,47.79
2023-05-09T07:56:49.183Z,47.74
2023-05-09T07:57:49.163Z,49.51
2023-05-09T07:58:49.168Z,47.28
2023-05-09T07:59:49.173Z,48.68
2023-05-09T08:00:49.169Z,48.49
2023-05-09T08:01:49.103Z,45.64
2023-05-09T08:02:49.191Z,46.49
2023-05-09T08:03:49.118Z,47.36
2023-05-09T08:04:49.283Z,49.05
2023-05-09T08:05:49.114Z,47.90
2023-05-09T08:06:49.076Z,47.79
2023-05-09T08:07:49.048Z,47.16
2023-05-09T08:08:49.047Z,47.54
2023-05-09T08:09:49.093Z,48.50
2023-05-09T08:10:49.030Z,46.84
2023-05-09T08:11:49.003Z,48.15
2023-05-09T08:12:49.110Z,46.59
2023-05-09T08:13:48.991Z,45.48
2023-05-09T08:14:49.018Z,47.14
2023-05-09T08:15:49.006Z,47.47
2023-05-09T08:16:48.958Z,47.79
2023-05-09T08:17:49.014Z,49.24
2023-05-09T08:18:48.960Z,45.84
2023-05-09T08:19:48.966Z,46.26
2023-05-09T08:20:48.906Z,46.67
2023-05-09T08:21:48.884Z,46.37
2023-05-09T08:22:48.868Z,46.09
2023-05-09T08:23:48.950Z,45.48
2023-05-09T08:24:48.899Z,45.40
2023-05-09T08:25:48.853Z,46.69
2023-05-09T08:26:48.859Z,45.02
2023-05-09T08:27:49.768Z,45.83
2023-05-09T08:28:48.879Z,45.83
2023-05-09T08:29:48.842Z,45.90
2023-05-09T08:30:48.788Z,46.51
2023-05-09T08:31:48.927Z,46.67
2023-05-09T08:32:48.814Z,44.83
2023-05-09T08:33:48.818Z,46.06
2023-05-09T08:34:48.785Z,45.26
2023-05-09T08:35:48.737Z,47.04
2023-05-09T08:36:48.734Z,47.86
2023-05-09T08:37:48.750Z,45.29
2023-05-09T08:38:48.742Z,45.92
2023-05-09T08:39:48.687Z,46.33
2023-05-09T08:40:48.661Z,46.50
2023-05-09T08:41:48.663Z,45.92
2023-05-09T08:42:48.702Z,46.40
2023-05-09T08:43:48.648Z,46.42
2023-05-09T08:44:48.641Z,46.87
2023-05-09T08:45:48.636Z,46.25
2023-05-09T08:46:48.731Z,46.47
2023-05-09T08:47:48.635Z,47.86
2023-05-09T08:48:48.577Z,46.12
2023-05-09T08:49:48.562Z,45.70
2023-05-09T08:50:48.580Z,45.75
2023-05-09T08:51:48.614Z,43.76
2023-05-09T08:52:48.570Z,45.66
2023-05-09T08:53:48.549Z,46.69
2023-05-09T08:54:48.547Z,46.51
2023-05-09T08:55:48.540Z,46.99
2023-05-09T08:56:48.557Z,46.12
2023-05-09T08:57:48.484Z,45.00
2023-05-09T08:58:48.475Z,45.19
2023-05-09T08:59:48.458Z,46.00
2023-05-09T09:00:48.520Z,45.50
2023-05-09T09:01:48.598Z,45.59
2023-05-09T09:02:48.468Z,44.71
2023-05-09T09:03:48.417Z,45.01
2023-05-09T09:04:48.508Z,45.72
2023-05-09T09:05:48.545Z,45.55
2023-05-09T09:06:48.468Z,44.11
2023-05-09T09:07:48.387Z,45.90
2023-05-09T09:08:48.382Z,45.26
2023-05-09T09:09:48.401Z,45.86
2023-05-09T09:10:48.468Z,45.92
2023-05-09T09:11:48.364Z,45.17
2023-05-09T09:12:50.073Z,45.13
2023-05-09T09:13:48.315Z,43.95
2023-05-09T09:14:48.333Z,44.53
2023-05-09T09:15:48.353Z,44.67
2023-05-09T09:16:48.389Z,46.54
2023-05-09T09:17:48.285Z,44.73
2023-05-09T09:18:48.260Z,45.63
2023-05-09T09:19:48.270Z,43.76
2023-05-09T09:20:48.289Z,43.74
2023-05-09T09:21:48.270Z,44.27
2023-05-09T09:22:48.234Z,45.03
2023-05-09T09:23:48.261Z,45.78
2023-05-09T09:24:48.254Z,44.47
2023-05-09T09:25:48.299Z,43.74
2023-05-09T09:26:48.229Z,44.47
2023-05-09T09:27:48.173Z,44.65
2023-05-09T09:28:48.181Z,44.81
2023-05-09T09:29:48.193Z,42.60
2023-05-09T09:30:48.152Z,44.11
2023-05-09T09:31:48.250Z,45.37
2023-05-09T09:32:48.161Z,43.66
2023-05-09T09:33:48.133Z,44.35
2023-05-09T09:34:48.136Z,43.92
2023-05-09T09:35:48.093Z,44.87
2023-05-09T09:36:48.096Z,45.05
2023-05-09T09:37:48.052Z,44.40
2023-05-09T09:38:48.111Z,43.42
2023-05-09T09:39:48.048Z,43.99
2023-05-09T09:40:48.057Z,44.45
2023-05-09T09:41:47.999Z,44.51
2023-05-09T09:42:48.037Z,45.72
2023-05-09T09:43:48.065Z,41.43
2023-05-09T09:44:48.028Z,43.32
2023-05-09T09:45:48.018Z,42.58
2023-05-09T09:46:47.988Z,43.64
2023-05-09T09:47:48.058Z,45.57
2023-05-09T09:48:48.029Z,45.79
2023-05-09T09:49:47.969Z,45.50
2023-05-09T09:50:47.938Z,45.98
2023-05-09T09:51:47.902Z,44.55
2023-05-09T09:52:47.951Z,44.73
2023-05-09T09:53:47.875Z,44.02
2023-05-09T09:54:47.895Z,44.04
2023-05-09T09:55:47.883Z,43.88
2023-05-09T09:56:47.886Z,44.69
2023-05-09T09:57:47.887Z,44.63
2023-05-09T09:58:47.841Z,44.37
2023-05-09T09:59:47.848Z,44.35
2023-05-09T10:00:47.810Z,44.00
2023-05-09T10:01:47.900Z,43.76
2023-05-09T10:02:47.874Z,45.19
2023-05-09T10:03:47.795Z,45.37
2023-05-09T10:04:47.754Z,43.44
2023-05-09T10:05:47.749Z,43.62
2023-05-09T10:06:47.786Z,44.91
2023-05-09T10:07:47.753Z,43.40
2023-05-09T10:08:47.793Z,43.20
2023-05-09T10:09:47.716Z,43.56
2023-05-09T10:10:47.736Z,44.49
2023-05-09T10:11:47.737Z,44.32
2023-05-09T10:12:47.723Z,44.34
2023-05-09T10:13:47.660Z,42.86
2023-05-09T10:14:47.630Z,41.87
2023-05-09T10:15:53.613Z,43.60
2023-05-09T10:16:48.765Z,45.14
2023-05-09T10:17:47.801Z,41.05
2023-05-09T10:18:47.862Z,46.04
2023-05-09T10:19:47.601Z,41.63
2023-05-09T10:20:47.630Z,42.74
2023-05-09T10:21:47.604Z,43.44
2023-05-09T10:22:47.579Z,42.21
2023-05-09T10:23:47.554Z,41.71
2023-05-09T10:24:47.592Z,41.77
2023-05-09T10:25:47.548Z,42.52
2023-05-09T10:26:47.525Z,44.02
2023-05-09T10:27:47.534Z,45.99
2023-05-09T10:28:47.496Z,42.33
2023-05-09T10:29:47.518Z,43.64
2023-05-09T10:30:47.534Z,42.61
2023-05-09T10:31:47.602Z,42.46
2023-05-09T10:32:47.496Z,43.60
2023-05-09T10:33:47.513Z,42.47
2023-05-09T10:34:47.506Z,43.30
2023-05-09T10:35:47.447Z,43.74
2023-05-09T10:36:47.428Z,42.69
2023-05-09T10:37:47.428Z,41.01
2023-05-09T10:38:47.424Z,41.93
2023-05-09T10:39:47.405Z,42.25
2023-05-09T10:40:47.386Z,42.63
2023-05-09T10:41:47.364Z,44.54
2023-05-09T10:42:47.345Z,42.02
2023-05-09T10:43:47.393Z,42.74
2023-05-09T10:44:47.345Z,43.28
2023-05-09T10:45:47.293Z,43.42
2023-05-09T10:46:47.426Z,43.40
2023-05-09T10:47:47.316Z,43.26
2023-05-09T10:48:47.325Z,43.82
2023-05-09T10:49:47.331Z,41.29
2023-05-09T10:50:47.282Z,42.77
2023-05-09T10:51:47.243Z,43.98
2023-05-09T10:52:47.255Z,41.19
2023-05-09T10:53:47.319Z,42.18
2023-05-09T10:54:47.226Z,43.28
2023-05-09T10:55:47.215Z,42.76
2023-05-09T10:56:47.211Z,42.74
2023-05-09T10:57:47.215Z,43.02
2023-05-09T10:58:47.243Z,42.38
2023-05-09T10:59:47.200Z,42.40
2023-05-09T11:00:47.145Z,43.32
2023-05-09T11:01:47.183Z,44.08
2023-05-09T11:02:47.267Z,42.91
2023-05-09T11:03:47.313Z,41.79
2023-05-09T11:04:47.128Z,41.75
2023-05-09T11:05:47.109Z,43.28
2023-05-09T11:06:47.102Z,44.28
2023-05-09T11:07:47.160Z,41.85
2023-05-09T11:08:47.060Z,41.75
2023-05-09T11:09:47.056Z,42.44
2023-05-09T11:10:47.089Z,42.02
2023-05-09T11:11:47.039Z,40.91
2023-05-09T11:12:47.052Z,42.11
2023-05-09T11:13:47.057Z,41.29
2023-05-09T11:14:47.002Z,40.11
2023-05-09T11:15:46.999Z,42.02
2023-05-09T11:16:47.036Z,41.21
2023-05-09T11:17:47.122Z,42.44
2023-05-09T11:18:46.959Z,42.18
2023-05-09T11:19:46.970Z,40.75
2023-05-09T11:20:46.961Z,41.19
2023-05-09T11:21:46.921Z,40.79
2023-05-09T11:22:46.943Z,42.41
2023-05-09T11:23:47.005Z,40.91
2023-05-09T11:24:46.910Z,41.74
2023-05-09T11:25:46.870Z,41.07
2023-05-09T11:26:46.964Z,41.24
2023-05-09T11:27:46.872Z,41.03
2023-05-09T11:28:46.851Z,39.65
2023-05-09T11:29:46.909Z,40.01
2023-05-09T11:30:46.823Z,40.53
2023-05-09T11:31:46.880Z,40.91
2023-05-09T11:32:46.844Z,40.11
2023-05-09T11:33:46.763Z,40.99
2023-05-09T11:34:46.805Z,40.85
2023-05-09T11:35:46.777Z,40.39
2023-05-09T11:36:46.772Z,42.05
2023-05-09T11:37:46.768Z,41.43
2023-05-09T11:38:46.762Z,40.00
2023-05-09T11:39:46.763Z,39.51
2023-05-09T11:40:46.759Z,38.83
2023-05-09T11:41:46.743Z,40.21
2023-05-09T11:42:46.673Z,40.69
2023-05-09T11:43:46.687Z,41.69
2023-05-09T11:44:46.723Z,40.37
2023-05-09T11:45:46.747Z,42.38
2023-05-09T11:46:46.684Z,39.77
2023-05-09T11:47:46.685Z,40.05
2023-05-09T11:48:46.630Z,41.43
2023-05-09T11:49:46.630Z,38.68
2023-05-09T11:50:46.648Z,40.39
2023-05-09T11:51:46.608Z,39.97
2023-05-09T11:52:46.596Z,39.77
2023-05-09T11:53:46.589Z,40.69
2023-05-09T11:54:46.611Z,40.81
2023-05-09T11:55:46.642Z,40.81
2023-05-09T11:56:46.586Z,41.61
2023-05-09T11:57:46.560Z,40.57
2023-05-09T11:58:46.505Z,40.69
2023-05-09T11:59:46.646Z,41.55
2023-05-09T12:00:46.527Z,39.91
2023-05-09T12:01:46.499Z,40.07
2023-05-09T12:02:46.555Z,39.65
2023-05-09T12:03:46.595Z,40.61
2023-05-09T12:04:46.515Z,40.31
2023-05-09T12:05:46.464Z,40.89
2023-05-09T12:06:46.430Z,39.11
2023-05-09T12:07:46.494Z,39.51
2023-05-09T12:08:46.495Z,39.73
2023-05-09T12:09:46.440Z,40.59
2023-05-09T12:10:46.398Z,41.45
2023-05-09T12:11:47.815Z,41.25
2023-05-09T12:12:46.405Z,41.31
2023-05-09T12:13:46.414Z,41.19
2023-05-09T12:14:46.364Z,41.03
2023-05-09T12:15:47.185Z,41.41
2023-05-09T12:16:46.347Z,41.67
2023-05-09T12:17:47.373Z,41.17
2023-05-09T12:18:46.365Z,41.47
2023-05-09T12:19:46.306Z,41.82
2023-05-09T12:20:46.300Z,39.93
2023-05-09T12:21:46.284Z,40.13
2023-05-09T12:22:46.294Z,39.97
2023-05-09T12:23:47.487Z,41.46
2023-05-09T12:24:46.278Z,40.85
2023-05-09T12:25:46.223Z,40.79
2023-05-09T12:26:46.227Z,40.09
2023-05-09T12:27:46.246Z,40.61
2023-05-09T12:28:46.258Z,41.79
2023-05-09T12:29:46.237Z,40.67
2023-05-09T12:30:46.171Z,41.27
2023-05-09T12:31:46.216Z,41.82
2023-05-09T12:32:46.285Z,42.03
2023-05-09T12:33:46.223Z,41.89
2023-05-09T12:34:46.148Z,41.49
2023-05-09T12:35:46.152Z,41.17
2023-05-09T12:36:46.119Z,41.46
2023-05-09T12:37:46.148Z,41.27
2023-05-09T12:38:46.088Z,41.38
2023-05-09T12:39:46.065Z,40.61
2023-05-09T12:40:46.060Z,41.01
2023-05-09T12:41:57.407Z,42.02
2023-05-09T12:42:47.095Z,42.30
2023-05-09T12:43:46.063Z,40.87
2023-05-09T12:44:46.040Z,41.35
2023-05-09T12:45:46.035Z,41.49
2023-05-09T12:46:46.065Z,42.97
2023-05-09T12:47:46.097Z,42.54
2023-05-09T12:48:46.002Z,40.69
2023-05-09T12:49:45.991Z,42.05
2023-05-09T12:50:45.995Z,42.21
2023-05-09T12:51:46.007Z,41.79
2023-05-09T12:52:58.915Z,41.75